sensor_id;sensor_type;location;lat;lon;timestamp;P1;durP1;ratioP1;P2;durP2;ratioP2
50815;SDS011;39717;47.324;8.788;2023-04-25T00:00:48;10.03;;;3.37;;
50815;SDS011;39717;47.324;8.788;2023-04-25T00:03:15;3.37;;;2.43;;
50815;SDS011;39717;47.324;8.788;2023-04-25T00:05:43;4.13;;;2.40;;
50815;SDS011;39717;47.324;8.788;2023-04-25T00:08:10;5.10;;;2.60;;
50815;SDS011;39717;47.324;8.788;2023-04-25T00:10:36;5.57;;;2.70;;
50815;SDS011;39717;47.324;8.788;2023-04-25T00:13:02;6.07;;;2.47;;
50815;SDS011;39717;47.324;8.788;2023-04-25T00:15:29;5.53;;;2.57;;
50815;SDS011;39717;47.324;8.788;2023-04-25T00:17:56;3.67;;;2.20;;
50815;SDS011;39717;47.324;8.788;2023-04-25T00:20:22;5.87;;;2.50;;
50815;SDS011;39717;47.324;8.788;2023-04-25T00:22:50;7.63;;;2.50;;
50815;SDS011;39717;47.324;8.788;2023-04-25T00:25:18;6.43;;;2.07;;
50815;SDS011;39717;47.324;8.788;2023-04-25T00:27:44;6.93;;;2.47;;
50815;SDS011;39717;47.324;8.788;2023-04-25T00:30:10;4.23;;;2.63;;
50815;SDS011;39717;47.324;8.788;2023-04-25T00:32:37;3.60;;;2.00;;
50815;SDS011;39717;47.324;8.788;2023-04-25T00:35:03;3.83;;;2.67;;
50815;SDS011;39717;47.324;8.788;2023-04-25T00:37:29;3.80;;;2.27;;
50815;SDS011;39717;47.324;8.788;2023-04-25T00:39:57;6.97;;;2.10;;
50815;SDS011;39717;47.324;8.788;2023-04-25T00:42:23;6.43;;;2.50;;
50815;SDS011;39717;47.324;8.788;2023-04-25T00:44:50;5.50;;;2.80;;
50815;SDS011;39717;47.324;8.788;2023-04-25T00:47:17;3.97;;;2.30;;
50815;SDS011;39717;47.324;8.788;2023-04-25T00:49:43;7.23;;;2.50;;
50815;SDS011;39717;47.324;8.788;2023-04-25T00:52:10;4.50;;;2.27;;
50815;SDS011;39717;47.324;8.788;2023-04-25T00:54:36;3.83;;;2.20;;
50815;SDS011;39717;47.324;8.788;2023-04-25T00:57:03;3.87;;;1.60;;
50815;SDS011;39717;47.324;8.788;2023-04-25T00:59:29;7.47;;;2.43;;
50815;SDS011;39717;47.324;8.788;2023-04-25T01:01:56;6.37;;;2.37;;
50815;SDS011;39717;47.324;8.788;2023-04-25T01:04:22;6.83;;;2.20;;
50815;SDS011;39717;47.324;8.788;2023-04-25T01:06:48;3.77;;;2.10;;
50815;SDS011;39717;47.324;8.788;2023-04-25T01:09:15;6.67;;;2.50;;
50815;SDS011;39717;47.324;8.788;2023-04-25T01:11:41;4.23;;;2.03;;
50815;SDS011;39717;47.324;8.788;2023-04-25T01:14:08;3.13;;;1.57;;
50815;SDS011;39717;47.324;8.788;2023-04-25T01:16:34;1.57;;;1.40;;
50815;SDS011;39717;47.324;8.788;2023-04-25T01:19:01;5.23;;;2.30;;
50815;SDS011;39717;47.324;8.788;2023-04-25T01:21:27;4.27;;;1.70;;
50815;SDS011;39717;47.324;8.788;2023-04-25T01:23:55;3.10;;;2.23;;
50815;SDS011;39717;47.324;8.788;2023-04-25T01:26:21;4.13;;;2.10;;
50815;SDS011;39717;47.324;8.788;2023-04-25T01:28:48;4.43;;;1.97;;
50815;SDS011;39717;47.324;8.788;2023-04-25T01:31:15;5.23;;;2.30;;
50815;SDS011;39717;47.324;8.788;2023-04-25T01:33:41;3.97;;;1.90;;
50815;SDS011;39717;47.324;8.788;2023-04-25T01:36:08;5.90;;;2.23;;
50815;SDS011;39717;47.324;8.788;2023-04-25T01:38:34;3.17;;;1.80;;
50815;SDS011;39717;47.324;8.788;2023-04-25T01:41:01;5.77;;;2.50;;
50815;SDS011;39717;47.324;8.788;2023-04-25T01:43:27;3.30;;;2.00;;
50815;SDS011;39717;47.324;8.788;2023-04-25T01:45:53;7.07;;;2.40;;
50815;SDS011;39717;47.324;8.788;2023-04-25T01:48:20;8.73;;;2.57;;
50815;SDS011;39717;47.324;8.788;2023-04-25T01:50:46;5.20;;;2.53;;
50815;SDS011;39717;47.324;8.788;2023-04-25T01:53:12;2.93;;;2.27;;
50815;SDS011;39717;47.324;8.788;2023-04-25T01:55:39;5.20;;;2.37;;
50815;SDS011;39717;47.324;8.788;2023-04-25T01:58:05;4.40;;;2.43;;
50815;SDS011;39717;47.324;8.788;2023-04-25T02:00:35;4.53;;;2.37;;
50815;SDS011;39717;47.324;8.788;2023-04-25T02:03:06;12.03;;;8.50;;
50815;SDS011;39717;47.324;8.788;2023-04-25T02:05:34;9.17;;;4.70;;
50815;SDS011;39717;47.324;8.788;2023-04-25T02:08:01;5.57;;;3.50;;
50815;SDS011;39717;47.324;8.788;2023-04-25T02:10:28;9.83;;;5.60;;
50815;SDS011;39717;47.324;8.788;2023-04-25T02:12:54;7.33;;;4.60;;
50815;SDS011;39717;47.324;8.788;2023-04-25T02:15:20;7.90;;;3.07;;
50815;SDS011;39717;47.324;8.788;2023-04-25T02:17:47;8.00;;;2.77;;
50815;SDS011;39717;47.324;8.788;2023-04-25T02:20:13;3.77;;;2.30;;
50815;SDS011;39717;47.324;8.788;2023-04-25T02:22:41;9.03;;;2.87;;
50815;SDS011;39717;47.324;8.788;2023-04-25T02:25:08;5.27;;;2.80;;
50815;SDS011;39717;47.324;8.788;2023-04-25T02:27:34;4.67;;;3.13;;
50815;SDS011;39717;47.324;8.788;2023-04-25T02:30:00;4.80;;;2.63;;
50815;SDS011;39717;47.324;8.788;2023-04-25T02:32:26;4.50;;;3.00;;
50815;SDS011;39717;47.324;8.788;2023-04-25T02:34:53;4.20;;;2.60;;
50815;SDS011;39717;47.324;8.788;2023-04-25T02:37:19;4.93;;;2.90;;
50815;SDS011;39717;47.324;8.788;2023-04-25T02:39:45;7.17;;;2.63;;
50815;SDS011;39717;47.324;8.788;2023-04-25T02:42:11;5.27;;;3.07;;
50815;SDS011;39717;47.324;8.788;2023-04-25T02:44:37;6.37;;;3.00;;
50815;SDS011;39717;47.324;8.788;2023-04-25T02:47:03;4.00;;;2.87;;
50815;SDS011;39717;47.324;8.788;2023-04-25T02:49:29;5.27;;;3.13;;
50815;SDS011;39717;47.324;8.788;2023-04-25T02:51:55;5.47;;;2.90;;
50815;SDS011;39717;47.324;8.788;2023-04-25T02:54:21;6.47;;;3.33;;
50815;SDS011;39717;47.324;8.788;2023-04-25T02:56:47;4.50;;;2.53;;
50815;SDS011;39717;47.324;8.788;2023-04-25T02:59:14;6.23;;;3.00;;
50815;SDS011;39717;47.324;8.788;2023-04-25T03:01:40;4.20;;;2.80;;
50815;SDS011;39717;47.324;8.788;2023-04-25T03:04:06;5.17;;;3.13;;
50815;SDS011;39717;47.324;8.788;2023-04-25T03:06:32;5.17;;;3.40;;
50815;SDS011;39717;47.324;8.788;2023-04-25T03:08:58;5.13;;;3.03;;
50815;SDS011;39717;47.324;8.788;2023-04-25T03:11:25;9.70;;;3.17;;
50815;SDS011;39717;47.324;8.788;2023-04-25T03:13:51;6.53;;;3.43;;
50815;SDS011;39717;47.324;8.788;2023-04-25T03:16:17;6.17;;;2.97;;
50815;SDS011;39717;47.324;8.788;2023-04-25T03:18:43;4.13;;;3.30;;
50815;SDS011;39717;47.324;8.788;2023-04-25T03:21:09;5.00;;;3.10;;
50815;SDS011;39717;47.324;8.788;2023-04-25T03:23:35;5.97;;;3.07;;
50815;SDS011;39717;47.324;8.788;2023-04-25T03:26:01;5.30;;;3.03;;
50815;SDS011;39717;47.324;8.788;2023-04-25T03:28:28;5.90;;;3.47;;
50815;SDS011;39717;47.324;8.788;2023-04-25T03:30:54;4.50;;;3.50;;
50815;SDS011;39717;47.324;8.788;2023-04-25T03:33:20;5.03;;;3.20;;
50815;SDS011;39717;47.324;8.788;2023-04-25T03:35:46;7.07;;;3.53;;
50815;SDS011;39717;47.324;8.788;2023-04-25T03:38:12;9.77;;;3.53;;
50815;SDS011;39717;47.324;8.788;2023-04-25T03:40:38;4.33;;;3.47;;
50815;SDS011;39717;47.324;8.788;2023-04-25T03:43:05;5.80;;;3.60;;
50815;SDS011;39717;47.324;8.788;2023-04-25T03:45:31;7.90;;;3.50;;
50815;SDS011;39717;47.324;8.788;2023-04-25T03:47:57;5.90;;;3.47;;
50815;SDS011;39717;47.324;8.788;2023-04-25T03:50:23;5.23;;;3.10;;
50815;SDS011;39717;47.324;8.788;2023-04-25T03:52:49;4.37;;;3.07;;
50815;SDS011;39717;47.324;8.788;2023-04-25T03:55:16;5.53;;;3.00;;
50815;SDS011;39717;47.324;8.788;2023-04-25T03:57:42;6.07;;;3.37;;
50815;SDS011;39717;47.324;8.788;2023-04-25T04:00:08;4.83;;;3.73;;
50815;SDS011;39717;47.324;8.788;2023-04-25T04:02:34;4.07;;;3.10;;
50815;SDS011;39717;47.324;8.788;2023-04-25T04:05:03;4.80;;;3.03;;
50815;SDS011;39717;47.324;8.788;2023-04-25T04:07:30;6.40;;;3.50;;
50815;SDS011;39717;47.324;8.788;2023-04-25T04:09:58;7.07;;;3.23;;
50815;SDS011;39717;47.324;8.788;2023-04-25T04:12:24;6.60;;;3.57;;
50815;SDS011;39717;47.324;8.788;2023-04-25T04:14:50;5.13;;;3.30;;
50815;SDS011;39717;47.324;8.788;2023-04-25T04:17:16;6.37;;;3.50;;
50815;SDS011;39717;47.324;8.788;2023-04-25T04:19:43;5.23;;;3.80;;
50815;SDS011;39717;47.324;8.788;2023-04-25T04:22:09;5.83;;;3.37;;
50815;SDS011;39717;47.324;8.788;2023-04-25T04:24:35;7.53;;;3.60;;
50815;SDS011;39717;47.324;8.788;2023-04-25T04:27:01;4.63;;;3.33;;
50815;SDS011;39717;47.324;8.788;2023-04-25T04:29:28;4.23;;;2.80;;
50815;SDS011;39717;47.324;8.788;2023-04-25T04:31:54;6.53;;;3.03;;
50815;SDS011;39717;47.324;8.788;2023-04-25T04:34:20;5.80;;;2.83;;
50815;SDS011;39717;47.324;8.788;2023-04-25T04:36:47;5.93;;;3.73;;
50815;SDS011;39717;47.324;8.788;2023-04-25T04:39:13;7.63;;;3.43;;
50815;SDS011;39717;47.324;8.788;2023-04-25T04:41:39;8.27;;;2.80;;
50815;SDS011;39717;47.324;8.788;2023-04-25T04:44:06;5.40;;;3.03;;
50815;SDS011;39717;47.324;8.788;2023-04-25T04:46:34;5.97;;;3.20;;
50815;SDS011;39717;47.324;8.788;2023-04-25T04:49:10;8.80;;;2.97;;
50815;SDS011;39717;47.324;8.788;2023-04-25T04:51:37;5.33;;;3.40;;
50815;SDS011;39717;47.324;8.788;2023-04-25T04:54:04;4.90;;;3.13;;
50815;SDS011;39717;47.324;8.788;2023-04-25T04:56:30;7.47;;;3.30;;
50815;SDS011;39717;47.324;8.788;2023-04-25T04:58:59;5.10;;;3.07;;
50815;SDS011;39717;47.324;8.788;2023-04-25T05:01:27;7.10;;;3.00;;
50815;SDS011;39717;47.324;8.788;2023-04-25T05:03:54;6.33;;;3.47;;
50815;SDS011;39717;47.324;8.788;2023-04-25T05:06:25;6.07;;;3.10;;
50815;SDS011;39717;47.324;8.788;2023-04-25T05:08:51;4.97;;;2.90;;
50815;SDS011;39717;47.324;8.788;2023-04-25T05:11:18;7.00;;;3.33;;
50815;SDS011;39717;47.324;8.788;2023-04-25T05:13:46;6.83;;;3.00;;
50815;SDS011;39717;47.324;8.788;2023-04-25T05:16:13;5.53;;;3.10;;
50815;SDS011;39717;47.324;8.788;2023-04-25T05:18:39;3.70;;;3.10;;
50815;SDS011;39717;47.324;8.788;2023-04-25T05:21:06;4.90;;;2.90;;
50815;SDS011;39717;47.324;8.788;2023-04-25T05:23:32;3.77;;;2.90;;
50815;SDS011;39717;47.324;8.788;2023-04-25T05:25:59;4.53;;;3.03;;
50815;SDS011;39717;47.324;8.788;2023-04-25T05:28:25;4.63;;;3.00;;
50815;SDS011;39717;47.324;8.788;2023-04-25T05:30:51;4.07;;;2.60;;
50815;SDS011;39717;47.324;8.788;2023-04-25T05:33:17;7.97;;;2.70;;
50815;SDS011;39717;47.324;8.788;2023-04-25T05:35:43;6.17;;;2.90;;
50815;SDS011;39717;47.324;8.788;2023-04-25T05:38:09;2.40;;;2.20;;
50815;SDS011;39717;47.324;8.788;2023-04-25T05:40:36;8.30;;;2.73;;
50815;SDS011;39717;47.324;8.788;2023-04-25T05:43:02;3.17;;;1.93;;
50815;SDS011;39717;47.324;8.788;2023-04-25T05:45:28;4.33;;;2.20;;
50815;SDS011;39717;47.324;8.788;2023-04-25T05:47:54;3.43;;;2.30;;
50815;SDS011;39717;47.324;8.788;2023-04-25T05:50:21;4.07;;;1.87;;
50815;SDS011;39717;47.324;8.788;2023-04-25T05:52:47;4.60;;;2.10;;
50815;SDS011;39717;47.324;8.788;2023-04-25T05:55:13;2.63;;;1.73;;
50815;SDS011;39717;47.324;8.788;2023-04-25T05:57:41;4.17;;;2.20;;
50815;SDS011;39717;47.324;8.788;2023-04-25T06:00:12;7.03;;;1.93;;
50815;SDS011;39717;47.324;8.788;2023-04-25T06:02:40;3.20;;;1.80;;
50815;SDS011;39717;47.324;8.788;2023-04-25T06:05:07;2.50;;;1.87;;
50815;SDS011;39717;47.324;8.788;2023-04-25T06:07:34;4.23;;;1.97;;
50815;SDS011;39717;47.324;8.788;2023-04-25T06:10:00;4.23;;;2.30;;
50815;SDS011;39717;47.324;8.788;2023-04-25T06:12:26;4.63;;;1.83;;
50815;SDS011;39717;47.324;8.788;2023-04-25T06:14:52;3.80;;;2.40;;
50815;SDS011;39717;47.324;8.788;2023-04-25T06:17:19;3.97;;;1.87;;
50815;SDS011;39717;47.324;8.788;2023-04-25T06:19:45;2.67;;;1.70;;
50815;SDS011;39717;47.324;8.788;2023-04-25T06:22:11;2.03;;;1.83;;
50815;SDS011;39717;47.324;8.788;2023-04-25T06:24:37;3.27;;;1.80;;
50815;SDS011;39717;47.324;8.788;2023-04-25T06:27:03;2.87;;;1.83;;
50815;SDS011;39717;47.324;8.788;2023-04-25T06:29:30;7.33;;;2.00;;
50815;SDS011;39717;47.324;8.788;2023-04-25T06:31:56;3.57;;;2.17;;
50815;SDS011;39717;47.324;8.788;2023-04-25T06:34:22;4.13;;;1.97;;
50815;SDS011;39717;47.324;8.788;2023-04-25T06:36:49;3.93;;;2.00;;
50815;SDS011;39717;47.324;8.788;2023-04-25T06:39:15;2.90;;;2.03;;
50815;SDS011;39717;47.324;8.788;2023-04-25T06:41:41;2.03;;;1.70;;
50815;SDS011;39717;47.324;8.788;2023-04-25T06:44:07;2.50;;;2.03;;
50815;SDS011;39717;47.324;8.788;2023-04-25T06:46:34;5.37;;;2.20;;
50815;SDS011;39717;47.324;8.788;2023-04-25T06:49:01;5.13;;;2.60;;
50815;SDS011;39717;47.324;8.788;2023-04-25T06:51:27;4.10;;;2.37;;
50815;SDS011;39717;47.324;8.788;2023-04-25T06:53:55;5.77;;;2.90;;
50815;SDS011;39717;47.324;8.788;2023-04-25T06:56:21;5.80;;;2.50;;
50815;SDS011;39717;47.324;8.788;2023-04-25T06:58:48;4.90;;;2.67;;
50815;SDS011;39717;47.324;8.788;2023-04-25T07:01:15;8.77;;;3.43;;
50815;SDS011;39717;47.324;8.788;2023-04-25T07:03:41;8.43;;;2.97;;
50815;SDS011;39717;47.324;8.788;2023-04-25T07:06:07;7.30;;;3.67;;
50815;SDS011;39717;47.324;8.788;2023-04-25T07:08:33;7.17;;;3.43;;
50815;SDS011;39717;47.324;8.788;2023-04-25T07:10:59;5.23;;;2.97;;
50815;SDS011;39717;47.324;8.788;2023-04-25T07:13:25;6.13;;;3.90;;
50815;SDS011;39717;47.324;8.788;2023-04-25T07:15:51;5.80;;;2.60;;
50815;SDS011;39717;47.324;8.788;2023-04-25T07:18:17;4.43;;;2.50;;
50815;SDS011;39717;47.324;8.788;2023-04-25T07:20:44;3.47;;;2.13;;
50815;SDS011;39717;47.324;8.788;2023-04-25T07:23:10;4.40;;;2.90;;
50815;SDS011;39717;47.324;8.788;2023-04-25T07:25:36;5.93;;;3.17;;
50815;SDS011;39717;47.324;8.788;2023-04-25T07:28:02;2.50;;;2.30;;
50815;SDS011;39717;47.324;8.788;2023-04-25T07:30:29;5.60;;;2.20;;
50815;SDS011;39717;47.324;8.788;2023-04-25T07:32:55;3.30;;;2.27;;
50815;SDS011;39717;47.324;8.788;2023-04-25T07:35:21;3.03;;;2.30;;
50815;SDS011;39717;47.324;8.788;2023-04-25T07:37:48;2.83;;;1.90;;
50815;SDS011;39717;47.324;8.788;2023-04-25T07:40:14;1.90;;;1.80;;
50815;SDS011;39717;47.324;8.788;2023-04-25T07:42:41;3.27;;;2.23;;
50815;SDS011;39717;47.324;8.788;2023-04-25T07:45:07;2.20;;;2.00;;
50815;SDS011;39717;47.324;8.788;2023-04-25T07:47:34;2.90;;;2.30;;
50815;SDS011;39717;47.324;8.788;2023-04-25T07:50:02;2.23;;;1.93;;
50815;SDS011;39717;47.324;8.788;2023-04-25T07:52:28;4.77;;;2.10;;
50815;SDS011;39717;47.324;8.788;2023-04-25T07:54:54;3.97;;;2.10;;
50815;SDS011;39717;47.324;8.788;2023-04-25T07:57:21;3.77;;;2.63;;
50815;SDS011;39717;47.324;8.788;2023-04-25T07:59:47;2.80;;;2.17;;
50815;SDS011;39717;47.324;8.788;2023-04-25T08:02:13;2.80;;;2.20;;
50815;SDS011;39717;47.324;8.788;2023-04-25T08:04:39;3.17;;;2.50;;
50815;SDS011;39717;47.324;8.788;2023-04-25T08:07:06;2.70;;;2.40;;
50815;SDS011;39717;47.324;8.788;2023-04-25T08:09:32;4.37;;;2.30;;
50815;SDS011;39717;47.324;8.788;2023-04-25T08:12:02;2.30;;;2.10;;
50815;SDS011;39717;47.324;8.788;2023-04-25T08:14:28;4.10;;;2.63;;
50815;SDS011;39717;47.324;8.788;2023-04-25T08:17:00;5.70;;;2.57;;
50815;SDS011;39717;47.324;8.788;2023-04-25T08:19:28;4.60;;;2.03;;
50815;SDS011;39717;47.324;8.788;2023-04-25T08:21:55;3.70;;;2.20;;
50815;SDS011;39717;47.324;8.788;2023-04-25T08:24:21;3.67;;;2.60;;
50815;SDS011;39717;47.324;8.788;2023-04-25T08:26:48;4.50;;;2.50;;
50815;SDS011;39717;47.324;8.788;2023-04-25T08:29:14;3.43;;;2.37;;
50815;SDS011;39717;47.324;8.788;2023-04-25T08:31:40;5.43;;;2.70;;
50815;SDS011;39717;47.324;8.788;2023-04-25T08:34:06;4.17;;;2.53;;
50815;SDS011;39717;47.324;8.788;2023-04-25T08:36:32;3.60;;;2.80;;
50815;SDS011;39717;47.324;8.788;2023-04-25T08:38:59;3.60;;;2.50;;
50815;SDS011;39717;47.324;8.788;2023-04-25T08:41:25;4.37;;;2.23;;
50815;SDS011;39717;47.324;8.788;2023-04-25T08:43:52;3.10;;;2.33;;
50815;SDS011;39717;47.324;8.788;2023-04-25T08:46:19;4.80;;;2.70;;
50815;SDS011;39717;47.324;8.788;2023-04-25T08:48:45;5.27;;;2.80;;
50815;SDS011;39717;47.324;8.788;2023-04-25T08:51:17;2.90;;;2.43;;
50815;SDS011;39717;47.324;8.788;2023-04-25T08:53:50;3.77;;;2.87;;
50815;SDS011;39717;47.324;8.788;2023-04-25T08:56:17;3.40;;;2.40;;
50815;SDS011;39717;47.324;8.788;2023-04-25T08:58:45;4.27;;;2.90;;
50815;SDS011;39717;47.324;8.788;2023-04-25T09:01:14;3.03;;;2.57;;
50815;SDS011;39717;47.324;8.788;2023-04-25T09:03:40;3.57;;;2.37;;
50815;SDS011;39717;47.324;8.788;2023-04-25T09:06:07;3.70;;;2.93;;
50815;SDS011;39717;47.324;8.788;2023-04-25T09:08:36;4.47;;;2.77;;
50815;SDS011;39717;47.324;8.788;2023-04-25T09:11:02;7.47;;;2.63;;
50815;SDS011;39717;47.324;8.788;2023-04-25T09:13:28;3.37;;;2.70;;
50815;SDS011;39717;47.324;8.788;2023-04-25T09:15:55;3.27;;;2.23;;
50815;SDS011;39717;47.324;8.788;2023-04-25T09:18:22;7.40;;;2.87;;
50815;SDS011;39717;47.324;8.788;2023-04-25T09:20:51;4.97;;;2.57;;
50815;SDS011;39717;47.324;8.788;2023-04-25T09:23:17;2.53;;;2.27;;
50815;SDS011;39717;47.324;8.788;2023-04-25T09:25:45;3.17;;;2.60;;
50815;SDS011;39717;47.324;8.788;2023-04-25T09:28:12;2.50;;;2.30;;
50815;SDS011;39717;47.324;8.788;2023-04-25T09:30:39;3.43;;;2.77;;
50815;SDS011;39717;47.324;8.788;2023-04-25T09:33:11;3.00;;;2.40;;
50815;SDS011;39717;47.324;8.788;2023-04-25T09:35:38;3.37;;;2.53;;
50815;SDS011;39717;47.324;8.788;2023-04-25T09:38:09;3.87;;;2.77;;
50815;SDS011;39717;47.324;8.788;2023-04-25T09:40:40;2.83;;;2.50;;
50815;SDS011;39717;47.324;8.788;2023-04-25T09:43:19;4.63;;;2.70;;
50815;SDS011;39717;47.324;8.788;2023-04-25T09:45:46;4.93;;;2.50;;
50815;SDS011;39717;47.324;8.788;2023-04-25T09:48:19;2.47;;;2.27;;
50815;SDS011;39717;47.324;8.788;2023-04-25T09:50:45;2.50;;;2.00;;
50815;SDS011;39717;47.324;8.788;2023-04-25T09:53:12;2.97;;;2.40;;
50815;SDS011;39717;47.324;8.788;2023-04-25T09:55:38;2.50;;;2.30;;
50815;SDS011;39717;47.324;8.788;2023-04-25T09:58:05;4.43;;;2.20;;
50815;SDS011;39717;47.324;8.788;2023-04-25T10:00:32;3.43;;;2.60;;
50815;SDS011;39717;47.324;8.788;2023-04-25T10:03:00;3.03;;;2.77;;
50815;SDS011;39717;47.324;8.788;2023-04-25T10:05:29;5.07;;;2.90;;
50815;SDS011;39717;47.324;8.788;2023-04-25T10:07:57;2.43;;;2.23;;
50815;SDS011;39717;47.324;8.788;2023-04-25T10:10:24;3.57;;;2.13;;
50815;SDS011;39717;47.324;8.788;2023-04-25T10:12:52;3.53;;;2.50;;
50815;SDS011;39717;47.324;8.788;2023-04-25T10:15:19;3.47;;;1.87;;
50815;SDS011;39717;47.324;8.788;2023-04-25T10:17:45;3.30;;;2.67;;
50815;SDS011;39717;47.324;8.788;2023-04-25T10:20:12;3.57;;;2.80;;
50815;SDS011;39717;47.324;8.788;2023-04-25T10:22:39;2.20;;;2.00;;
50815;SDS011;39717;47.324;8.788;2023-04-25T10:25:07;1.83;;;1.70;;
50815;SDS011;39717;47.324;8.788;2023-04-25T10:27:34;2.43;;;1.97;;
50815;SDS011;39717;47.324;8.788;2023-04-25T10:30:01;1.83;;;1.60;;
50815;SDS011;39717;47.324;8.788;2023-04-25T10:32:30;2.33;;;2.13;;
50815;SDS011;39717;47.324;8.788;2023-04-25T10:35:16;1.97;;;1.83;;
50815;SDS011;39717;47.324;8.788;2023-04-25T10:40:24;1.80;;;1.70;;
50815;SDS011;39717;47.324;8.788;2023-04-25T10:42:51;2.43;;;2.10;;
50815;SDS011;39717;47.324;8.788;2023-04-25T10:45:19;2.77;;;1.93;;
50815;SDS011;39717;47.324;8.788;2023-04-25T10:47:46;3.47;;;2.30;;
50815;SDS011;39717;47.324;8.788;2023-04-25T10:50:14;4.10;;;2.00;;
50815;SDS011;39717;47.324;8.788;2023-04-25T10:52:43;3.10;;;1.80;;
50815;SDS011;39717;47.324;8.788;2023-04-25T10:55:09;2.23;;;2.03;;
50815;SDS011;39717;47.324;8.788;2023-04-25T10:57:37;4.10;;;2.77;;
50815;SDS011;39717;47.324;8.788;2023-04-25T11:00:13;3.00;;;2.70;;
50815;SDS011;39717;47.324;8.788;2023-04-25T11:03:02;2.27;;;2.00;;
50815;SDS011;39717;47.324;8.788;2023-04-25T11:05:34;2.23;;;2.03;;
50815;SDS011;39717;47.324;8.788;2023-04-25T11:08:01;2.73;;;1.90;;
50815;SDS011;39717;47.324;8.788;2023-04-25T11:10:32;1.93;;;1.73;;
50815;SDS011;39717;47.324;8.788;2023-04-25T11:13:01;2.13;;;1.80;;
50815;SDS011;39717;47.324;8.788;2023-04-25T11:15:27;2.27;;;1.97;;
50815;SDS011;39717;47.324;8.788;2023-04-25T11:17:54;1.80;;;1.70;;
50815;SDS011;39717;47.324;8.788;2023-04-25T11:20:20;3.33;;;1.63;;
50815;SDS011;39717;47.324;8.788;2023-04-25T11:22:47;1.80;;;1.70;;
50815;SDS011;39717;47.324;8.788;2023-04-25T11:25:14;1.90;;;1.80;;
50815;SDS011;39717;47.324;8.788;2023-04-25T11:27:51;1.60;;;1.50;;
50815;SDS011;39717;47.324;8.788;2023-04-25T11:30:18;2.90;;;1.67;;
50815;SDS011;39717;47.324;8.788;2023-04-25T11:32:44;1.20;;;1.20;;
50815;SDS011;39717;47.324;8.788;2023-04-25T11:35:10;2.77;;;1.63;;
50815;SDS011;39717;47.324;8.788;2023-04-25T11:37:38;1.87;;;1.40;;
50815;SDS011;39717;47.324;8.788;2023-04-25T11:40:05;1.20;;;1.10;;
50815;SDS011;39717;47.324;8.788;2023-04-25T11:42:32;2.23;;;1.20;;
50815;SDS011;39717;47.324;8.788;2023-04-25T11:44:59;2.00;;;1.43;;
50815;SDS011;39717;47.324;8.788;2023-04-25T11:47:32;1.50;;;1.13;;
50815;SDS011;39717;47.324;8.788;2023-04-25T11:49:58;3.07;;;1.50;;
50815;SDS011;39717;47.324;8.788;2023-04-25T11:52:35;2.00;;;1.50;;
50815;SDS011;39717;47.324;8.788;2023-04-25T11:55:01;1.67;;;1.10;;
50815;SDS011;39717;47.324;8.788;2023-04-25T11:57:27;1.50;;;1.40;;
50815;SDS011;39717;47.324;8.788;2023-04-25T11:59:53;3.63;;;2.30;;
50815;SDS011;39717;47.324;8.788;2023-04-25T12:02:25;1.60;;;1.50;;
50815;SDS011;39717;47.324;8.788;2023-04-25T12:04:51;1.40;;;1.30;;
50815;SDS011;39717;47.324;8.788;2023-04-25T12:07:18;1.07;;;1.00;;
50815;SDS011;39717;47.324;8.788;2023-04-25T12:09:51;1.80;;;1.63;;
50815;SDS011;39717;47.324;8.788;2023-04-25T12:12:18;3.27;;;2.00;;
50815;SDS011;39717;47.324;8.788;2023-04-25T12:14:46;3.10;;;2.20;;
50815;SDS011;39717;47.324;8.788;2023-04-25T12:17:16;3.17;;;1.80;;
50815;SDS011;39717;47.324;8.788;2023-04-25T12:19:42;8.83;;;4.50;;
50815;SDS011;39717;47.324;8.788;2023-04-25T12:22:22;1.80;;;1.70;;
50815;SDS011;39717;47.324;8.788;2023-04-25T12:24:49;3.83;;;2.10;;
50815;SDS011;39717;47.324;8.788;2023-04-25T12:27:15;3.47;;;2.60;;
50815;SDS011;39717;47.324;8.788;2023-04-25T12:29:50;1.60;;;1.50;;
50815;SDS011;39717;47.324;8.788;2023-04-25T12:32:16;2.97;;;2.13;;
50815;SDS011;39717;47.324;8.788;2023-04-25T12:34:43;4.07;;;2.33;;
50815;SDS011;39717;47.324;8.788;2023-04-25T12:37:10;2.23;;;1.50;;
50815;SDS011;39717;47.324;8.788;2023-04-25T12:39:37;2.00;;;1.20;;
50815;SDS011;39717;47.324;8.788;2023-04-25T12:42:03;1.90;;;1.70;;
50815;SDS011;39717;47.324;8.788;2023-04-25T12:44:29;1.77;;;1.43;;
50815;SDS011;39717;47.324;8.788;2023-04-25T12:46:55;1.83;;;1.47;;
50815;SDS011;39717;47.324;8.788;2023-04-25T12:49:21;1.43;;;1.20;;
50815;SDS011;39717;47.324;8.788;2023-04-25T12:51:48;1.30;;;1.20;;
50815;SDS011;39717;47.324;8.788;2023-04-25T12:54:16;2.10;;;1.37;;
50815;SDS011;39717;47.324;8.788;2023-04-25T12:56:42;0.90;;;0.90;;
50815;SDS011;39717;47.324;8.788;2023-04-25T12:59:08;1.00;;;0.97;;
50815;SDS011;39717;47.324;8.788;2023-04-25T13:01:35;1.70;;;1.30;;
50815;SDS011;39717;47.324;8.788;2023-04-25T13:04:02;1.23;;;1.13;;
50815;SDS011;39717;47.324;8.788;2023-04-25T13:06:28;4.13;;;1.47;;
50815;SDS011;39717;47.324;8.788;2023-04-25T13:08:57;6.93;;;1.80;;
50815;SDS011;39717;47.324;8.788;2023-04-25T13:11:23;4.17;;;1.87;;
50815;SDS011;39717;47.324;8.788;2023-04-25T13:13:49;7.13;;;1.87;;
50815;SDS011;39717;47.324;8.788;2023-04-25T13:16:14;2.27;;;1.30;;
50815;SDS011;39717;47.324;8.788;2023-04-25T13:18:40;1.73;;;1.63;;
50815;SDS011;39717;47.324;8.788;2023-04-25T13:21:06;2.47;;;1.90;;
50815;SDS011;39717;47.324;8.788;2023-04-25T13:23:33;3.57;;;2.10;;
50815;SDS011;39717;47.324;8.788;2023-04-25T13:25:59;5.37;;;2.57;;
50815;SDS011;39717;47.324;8.788;2023-04-25T13:28:26;3.60;;;2.27;;
50815;SDS011;39717;47.324;8.788;2023-04-25T13:30:53;5.03;;;2.93;;
50815;SDS011;39717;47.324;8.788;2023-04-25T13:33:19;5.50;;;2.83;;
50815;SDS011;39717;47.324;8.788;2023-04-25T13:35:46;3.77;;;2.50;;
50815;SDS011;39717;47.324;8.788;2023-04-25T13:38:19;3.50;;;2.47;;
50815;SDS011;39717;47.324;8.788;2023-04-25T13:40:47;4.80;;;2.60;;
50815;SDS011;39717;47.324;8.788;2023-04-25T13:43:13;1.67;;;1.57;;
50815;SDS011;39717;47.324;8.788;2023-04-25T13:45:40;0.70;;;0.70;;
50815;SDS011;39717;47.324;8.788;2023-04-25T13:48:06;1.77;;;1.60;;
50815;SDS011;39717;47.324;8.788;2023-04-25T13:50:32;1.93;;;1.57;;
50815;SDS011;39717;47.324;8.788;2023-04-25T13:52:58;2.13;;;1.60;;
50815;SDS011;39717;47.324;8.788;2023-04-25T13:55:24;1.80;;;1.57;;
50815;SDS011;39717;47.324;8.788;2023-04-25T13:57:50;0.90;;;0.90;;
50815;SDS011;39717;47.324;8.788;2023-04-25T14:00:16;0.80;;;0.80;;
50815;SDS011;39717;47.324;8.788;2023-04-25T14:02:43;3.07;;;1.40;;
50815;SDS011;39717;47.324;8.788;2023-04-25T14:05:09;1.67;;;1.50;;
50815;SDS011;39717;47.324;8.788;2023-04-25T14:07:36;1.80;;;1.40;;
50815;SDS011;39717;47.324;8.788;2023-04-25T14:10:03;2.97;;;1.30;;
50815;SDS011;39717;47.324;8.788;2023-04-25T14:12:30;3.30;;;1.60;;
50815;SDS011;39717;47.324;8.788;2023-04-25T14:14:56;2.10;;;1.20;;
50815;SDS011;39717;47.324;8.788;2023-04-25T14:17:22;1.30;;;1.20;;
50815;SDS011;39717;47.324;8.788;2023-04-25T14:19:49;1.73;;;1.40;;
50815;SDS011;39717;47.324;8.788;2023-04-25T14:22:15;0.93;;;0.77;;
50815;SDS011;39717;47.324;8.788;2023-04-25T14:24:41;1.83;;;1.10;;
50815;SDS011;39717;47.324;8.788;2023-04-25T14:27:08;1.40;;;1.30;;
50815;SDS011;39717;47.324;8.788;2023-04-25T14:29:34;1.37;;;1.13;;
50815;SDS011;39717;47.324;8.788;2023-04-25T14:32:00;1.40;;;1.30;;
50815;SDS011;39717;47.324;8.788;2023-04-25T14:34:25;1.23;;;1.00;;
50815;SDS011;39717;47.324;8.788;2023-04-25T14:36:51;1.57;;;1.40;;
50815;SDS011;39717;47.324;8.788;2023-04-25T14:39:17;1.47;;;1.37;;
50815;SDS011;39717;47.324;8.788;2023-04-25T14:41:44;2.27;;;1.90;;
50815;SDS011;39717;47.324;8.788;2023-04-25T14:44:10;2.50;;;2.30;;
50815;SDS011;39717;47.324;8.788;2023-04-25T14:46:36;3.43;;;2.30;;
50815;SDS011;39717;47.324;8.788;2023-04-25T14:49:02;4.73;;;2.60;;